Time;durP1;ratioP1;P1;durP2;ratioP2;P2;SDS_P1;SDS_P2;PMS_P1;PMS_P2;Temp;Humidity;BMP_temperature;BMP_pressure;BME280_temperature;BME280_humidity;BME280_pressure;Samples;Min_cycle;Max_cycle;Signal;HPM_P1;HPM_P2
2021/10/29 00:02:07;;;;;;;;;15.25;15.25;;;;;;;;5091218;27;50173;-72
2021/10/29 00:04:32;;;;;;;;;14.00;12.25;;;;;;;;5089182;27;52973;-70
2021/10/29 00:06:57;;;;;;;;;23.00;17.00;;;;;;;;5090757;27;52893;-70
2021/10/29 00:09:22;;;;;;;;;19.00;19.00;;;;;;;;5091042;27;52289;-70
2021/10/29 00:11:47;;;;;;;;;12.50;12.50;;;;;;;;5091267;27;49564;-70
2021/10/29 00:14:13;;;;;;;;;18.00;13.75;;;;;;;;5091100;27;49955;-70
2021/10/29 00:16:38;;;;;;;;;18.50;17.50;;;;;;;;5090537;27;61011;-70
2021/10/29 00:19:03;;;;;;;;;15.75;15.00;;;;;;;;5089647;27;49708;-72
2021/10/29 00:21:28;;;;;;;;;13.00;13.00;;;;;;;;5091768;27;49700;-71
2021/10/29 00:23:56;;;;;;;;;13.75;13.75;;;;;;;;5095015;27;49870;-71
2021/10/29 00:26:21;;;;;;;;;18.50;15.75;;;;;;;;5094476;27;50390;-70
2021/10/29 00:28:46;;;;;;;;;19.00;18.00;;;;;;;;5094794;27;49903;-70
2021/10/29 00:31:12;;;;;;;;;15.00;13.00;;;;;;;;5094251;27;59187;-70
2021/10/29 00:33:37;;;;;;;;;16.75;16.00;;;;;;;;5094241;27;58687;-70
2021/10/29 00:36:02;;;;;;;;;16.00;15.00;;;;;;;;5093538;27;68238;-70
2021/10/29 00:38:28;;;;;;;;;15.00;15.00;;;;;;;;5094292;27;49725;-70
2021/10/29 00:40:53;;;;;;;;;17.25;14.25;;;;;;;;5093428;27;49929;-72
2021/10/29 00:43:19;;;;;;;;;13.00;13.00;;;;;;;;5094617;27;49905;-70
2021/10/29 00:45:44;;;;;;;;;13.75;12.50;;;;;;;;5094129;27;50664;-70
2021/10/29 00:48:12;;;;;;;;;17.00;16.25;;;;;;;;5094077;27;56164;-71
2021/10/29 00:50:37;;;;;;;;;15.00;15.00;;;;;;;;5092987;27;49958;-70
2021/10/29 00:53:03;;;;;;;;;11.75;11.75;;;;;;;;5092855;27;49739;-70
2021/10/29 00:55:28;;;;;;;;;13.75;13.75;;;;;;;;5092770;27;50307;-70
2021/10/29 00:57:53;;;;;;;;;14.00;12.75;;;;;;;;5094018;27;49762;-70
2021/10/29 01:00:18;;;;;;;;;16.50;13.00;;;;;;;;5093955;27;53456;-71
2021/10/29 01:02:44;;;;;;;;;16.75;14.00;;;;;;;;5093074;27;49949;-70
2021/10/29 01:05:09;;;;;;;;;15.00;12.50;;;;;;;;5093056;27;69035;-71
2021/10/29 01:07:34;;;;;;;;;14.75;12.50;;;;;;;;5092760;27;49833;-70
2021/10/29 01:09:59;;;;;;;;;16.50;13.75;;;;;;;;5092897;27;49936;-71
2021/10/29 01:12:25;;;;;;;;;13.75;13.00;;;;;;;;5092902;27;49597;-70
2021/10/29 01:14:53;;;;;;;;;19.25;19.25;;;;;;;;5093819;27;50342;-70
2021/10/29 01:17:19;;;;;;;;;19.00;18.75;;;;;;;;5093930;27;49688;-70
2021/10/29 01:19:44;;;;;;;;;21.00;19.75;;;;;;;;5093614;27;49855;-70
2021/10/29 01:22:09;;;;;;;;;28.75;24.25;;;;;;;;5092469;27;53004;-70
2021/10/29 01:24:34;;;;;;;;;20.00;18.25;;;;;;;;5093115;27;68213;-70
2021/10/29 01:26:59;;;;;;;;;20.50;20.25;;;;;;;;5093588;27;49738;-71
2021/10/29 01:29:24;;;;;;;;;21.00;17.75;;;;;;;;5093675;27;50212;-71
2021/10/29 01:31:50;;;;;;;;;13.00;12.25;;;;;;;;5092399;27;49786;-71
2021/10/29 01:34:15;;;;;;;;;24.50;22.00;;;;;;;;5091256;27;49738;-70
2021/10/29 01:36:40;;;;;;;;;17.75;17.75;;;;;;;;5091626;27;59766;-70
2021/10/29 01:39:06;;;;;;;;;20.25;19.00;;;;;;;;5093581;27;49741;-69
2021/10/29 01:41:31;;;;;;;;;17.25;17.25;;;;;;;;5093201;27;58105;-69
2021/10/29 01:43:56;;;;;;;;;18.25;17.75;;;;;;;;5092773;27;65823;-70
2021/10/29 01:46:21;;;;;;;;;19.25;18.00;;;;;;;;5093262;27;49599;-70
2021/10/29 01:48:47;;;;;;;;;16.00;16.00;;;;;;;;5093344;27;50396;-70
2021/10/29 01:51:13;;;;;;;;;25.75;17.50;;;;;;;;5093249;27;49807;-70
2021/10/29 01:53:38;;;;;;;;;17.75;14.25;;;;;;;;5091855;27;50212;-70
2021/10/29 01:56:04;;;;;;;;;17.25;14.75;;;;;;;;5092168;27;49860;-73
2021/10/29 01:58:29;;;;;;;;;15.00;13.75;;;;;;;;5091840;27;49823;-71
2021/10/29 02:00:54;;;;;;;;;17.75;14.75;;;;;;;;5093536;27;49116;-72
2021/10/29 02:03:19;;;;;;;;;14.25;11.25;;;;;;;;5092781;27;53549;-70
2021/10/29 02:05:44;;;;;;;;;16.25;16.25;;;;;;;;5091216;27;49881;-70
2021/10/29 02:08:10;;;;;;;;;18.75;16.50;;;;;;;;5091734;27;49757;-71
2021/10/29 02:10:36;;;;;;;;;14.50;14.50;;;;;;;;5091782;27;49839;-71
2021/10/29 02:13:01;;;;;;;;;21.00;17.75;;;;;;;;5093032;27;49899;-70
2021/10/29 02:15:27;;;;;;;;;16.75;15.00;;;;;;;;5092914;27;49897;-70
2021/10/29 02:17:52;;;;;;;;;14.75;13.00;;;;;;;;5091576;27;49700;-70
2021/10/29 02:20:17;;;;;;;;;19.50;16.50;;;;;;;;5091116;27;53129;-71
2021/10/29 02:22:43;;;;;;;;;19.75;16.75;;;;;;;;5092558;27;49634;-69
2021/10/29 02:25:08;;;;;;;;;17.25;14.25;;;;;;;;5092849;27;49899;-69
2021/10/29 02:27:34;;;;;;;;;17.25;15.75;;;;;;;;5092585;27;49785;-72
2021/10/29 02:29:59;;;;;;;;;17.00;16.00;;;;;;;;5092886;27;49729;-70
2021/10/29 02:32:24;;;;;;;;;21.50;18.75;;;;;;;;5091297;27;50943;-75
2021/10/29 02:34:49;;;;;;;;;16.75;15.75;;;;;;;;5092352;27;49753;-77
2021/10/29 02:37:14;;;;;;;;;18.50;17.75;;;;;;;;5092299;27;54130;-74
2021/10/29 02:39:39;;;;;;;;;16.25;16.00;;;;;;;;5091362;27;49851;-73
2021/10/29 02:42:05;;;;;;;;;18.25;16.25;;;;;;;;5091937;27;60682;-75
2021/10/29 02:44:31;;;;;;;;;14.50;13.00;;;;;;;;5091549;27;49550;-73
2021/10/29 02:46:56;;;;;;;;;13.75;12.50;;;;;;;;5090649;27;49990;-70
2021/10/29 02:49:21;;;;;;;;;15.75;15.75;;;;;;;;5091276;27;50108;-75
2021/10/29 02:51:46;;;;;;;;;18.75;15.75;;;;;;;;5091871;27;61071;-76
2021/10/29 02:54:12;;;;;;;;;16.50;15.00;;;;;;;;5090905;27;49714;-75
2021/10/29 02:56:37;;;;;;;;;16.00;14.25;;;;;;;;5092334;27;49708;-76
2021/10/29 02:59:03;;;;;;;;;14.25;14.25;;;;;;;;5090982;27;49955;-75
2021/10/29 03:01:28;;;;;;;;;12.75;12.50;;;;;;;;5090384;27;59414;-72
2021/10/29 03:03:53;;;;;;;;;13.75;13.00;;;;;;;;5092150;27;49830;-78
2021/10/29 03:06:18;;;;;;;;;14.75;12.75;;;;;;;;5091622;27;49772;-76
2021/10/29 03:08:43;;;;;;;;;11.75;11.75;;;;;;;;5090892;27;49692;-76
2021/10/29 03:11:08;;;;;;;;;17.00;15.75;;;;;;;;5091290;27;68142;-76
2021/10/29 03:13:34;;;;;;;;;12.50;12.50;;;;;;;;5090389;27;59236;-73
2021/10/29 03:15:59;;;;;;;;;13.50;12.25;;;;;;;;5092042;27;49942;-75
2021/10/29 03:18:24;;;;;;;;;12.50;12.50;;;;;;;;5090658;27;49864;-74
2021/10/29 03:20:50;;;;;;;;;12.25;12.25;;;;;;;;5091391;27;49852;-75
2021/10/29 03:23:16;;;;;;;;;12.75;11.75;;;;;;;;5073546;27;49758;-76
2021/10/29 03:25:41;;;;;;;;;10.75;10.00;;;;;;;;5091782;27;49844;-77
2021/10/29 03:28:07;;;;;;;;;11.00;11.00;;;;;;;;5092115;27;49707;-78
2021/10/29 03:30:32;;;;;;;;;10.75;10.00;;;;;;;;5090222;27;49802;-77
2021/10/29 03:32:57;;;;;;;;;9.25;9.25;;;;;;;;5090399;27;49713;-77
2021/10/29 03:35:23;;;;;;;;;12.00;12.00;;;;;;;;5091503;27;49799;-77
2021/10/29 03:42:46;;;;;;;;;15.00;13.75;;;;;;;;5090503;27;49731;-72
2021/10/29 03:45:14;;;;;;;;;10.75;10.50;;;;;;;;5091657;27;49776;-75
2021/10/29 03:47:47;;;;;;;;;10.50;10.50;;;;;;;;5090122;27;49940;-76
2021/10/29 03:50:23;;;;;;;;;13.50;13.00;;;;;;;;5090995;27;49816;-77
2021/10/29 03:52:52;;;;;;;;;12.25;12.25;;;;;;;;5090271;27;49821;-76
2021/10/29 03:55:18;;;;;;;;;14.25;12.25;;;;;;;;5091306;27;49875;-76
2021/10/29 03:57:43;;;;;;;;;12.00;12.00;;;;;;;;5089800;27;50235;-77
2021/10/29 04:00:09;;;;;;;;;11.75;10.50;;;;;;;;5091264;27;50337;-78
2021/10/29 04:02:34;;;;;;;;;13.75;11.00;;;;;;;;5091324;27;49662;-71
2021/10/29 04:04:59;;;;;;;;;11.50;10.50;;;;;;;;5088938;27;60438;-69
2021/10/29 04:07:25;;;;;;;;;10.50;10.50;;;;;;;;5091382;27;49730;-69
2021/10/29 04:09:50;;;;;;;;;14.00;13.00;;;;;;;;5090733;27;54715;-70
2021/10/29 04:12:17;;;;;;;;;9.50;9.50;;;;;;;;5089960;27;49780;-69
2021/10/29 04:14:43;;;;;;;;;11.00;11.00;;;;;;;;5091132;27;49860;-69
2021/10/29 04:17:08;;;;;;;;;9.25;9.25;;;;;;;;5091381;27;49750;-69
2021/10/29 04:19:33;;;;;;;;;12.75;11.75;;;;;;;;5089599;27;50530;-69
2021/10/29 04:22:00;;;;;;;;;10.00;9.25;;;;;;;;5072614;27;49761;-69
2021/10/29 04:24:25;;;;;;;;;13.25;11.00;;;;;;;;5091008;27;49645;-69
2021/10/29 04:26:50;;;;;;;;;10.75;10.75;;;;;;;;5089667;27;49829;-70
2021/10/29 04:29:24;;;;;;;;;8.00;8.00;;;;;;;;5090556;27;54063;-69
2021/10/29 04:31:50;;;;;;;;;9.00;8.75;;;;;;;;5090884;27;49789;-69
2021/10/29 04:34:16;;;;;;;;;10.25;9.50;;;;;;;;5090580;27;49757;-69
2021/10/29 04:36:41;;;;;;;;;17.75;14.00;;;;;;;;5089722;27;49818;-70
2021/10/29 04:39:11;;;;;;;;;11.25;11.00;;;;;;;;5090253;27;60614;-72
2021/10/29 04:41:37;;;;;;;;;10.25;9.75;;;;;;;;5089635;27;49685;-72
2021/10/29 04:44:02;;;;;;;;;13.50;11.00;;;;;;;;5089428;27;49875;-73
2021/10/29 04:46:27;;;;;;;;;10.50;10.50;;;;;;;;5089333;27;49930;-70
2021/10/29 04:48:53;;;;;;;;;14.25;10.50;;;;;;;;5089910;27;63998;-74
2021/10/29 04:51:18;;;;;;;;;10.00;10.00;;;;;;;;5090367;27;49746;-74
2021/10/29 04:53:43;;;;;;;;;10.75;9.25;;;;;;;;5090772;27;49918;-76
2021/10/29 04:56:08;;;;;;;;;10.25;10.25;;;;;;;;5091046;27;49623;-73
2021/10/29 04:58:34;;;;;;;;;11.75;10.00;;;;;;;;5088870;27;51433;-74
2021/10/29 05:00:59;;;;;;;;;12.75;12.50;;;;;;;;5090470;27;49721;-71
2021/10/29 05:03:25;;;;;;;;;9.25;9.25;;;;;;;;5090730;27;50218;-72
2021/10/29 05:05:50;;;;;;;;;10.50;10.50;;;;;;;;5088641;27;49991;-74
2021/10/29 05:08:15;;;;;;;;;14.75;13.50;;;;;;;;5090874;27;50123;-75
2021/10/29 05:10:40;;;;;;;;;9.00;9.00;;;;;;;;5093961;27;49840;-76
2021/10/29 05:13:06;;;;;;;;;11.50;10.50;;;;;;;;5094221;27;49725;-74
2021/10/29 05:15:31;;;;;;;;;9.75;9.75;;;;;;;;5094231;27;49960;-74
2021/10/29 05:17:57;;;;;;;;;10.25;10.25;;;;;;;;5092413;27;49717;-70
2021/10/29 05:20:22;;;;;;;;;10.00;9.25;;;;;;;;5093718;27;49658;-76
2021/10/29 05:22:47;;;;;;;;;11.25;8.50;;;;;;;;5075349;27;49879;-75
2021/10/29 05:25:13;;;;;;;;;12.75;12.75;;;;;;;;5093702;27;49574;-76
2021/10/29 05:27:38;;;;;;;;;9.25;9.00;;;;;;;;5093417;27;50343;-77
2021/10/29 05:30:04;;;;;;;;;13.50;11.50;;;;;;;;5092561;27;49790;-77
2021/10/29 05:32:29;;;;;;;;;15.00;13.50;;;;;;;;5093732;27;49612;-77
2021/10/29 05:34:59;;;;;;;;;11.75;10.75;;;;;;;;5092273;27;49931;-78
2021/10/29 05:37:25;;;;;;;;;9.00;8.00;;;;;;;;5092315;27;50497;-76
2021/10/29 05:39:50;;;;;;;;;9.75;9.00;;;;;;;;5093598;27;49829;-77
2021/10/29 05:42:15;;;;;;;;;12.25;11.50;;;;;;;;5093615;27;49946;-74
2021/10/29 05:44:40;;;;;;;;;11.25;11.25;;;;;;;;5092474;27;49677;-71
2021/10/29 05:47:05;;;;;;;;;17.25;14.50;;;;;;;;5093120;27;56771;-74
2021/10/29 05:49:31;;;;;;;;;11.25;11.25;;;;;;;;5095190;27;61303;-80
2021/10/29 05:51:57;;;;;;;;;6.00;5.75;;;;;;;;5091525;27;49760;-82
2021/10/29 05:54:39;;;;;;;;;11.25;10.25;;;;;;;;5093367;27;49804;-76
2021/10/29 05:57:05;;;;;;;;;13.50;10.00;;;;;;;;5092156;27;50361;-78
2021/10/29 05:59:33;;;;;;;;;12.25;12.25;;;;;;;;5092895;27;49814;-70
2021/10/29 06:01:59;;;;;;;;;12.00;10.50;;;;;;;;5091381;27;49726;-83
2021/10/29 06:04:24;;;;;;;;;16.00;14.75;;;;;;;;5091372;27;49872;-73
2021/10/29 06:06:52;;;;;;;;;11.25;11.25;;;;;;;;5091416;27;50388;-76
2021/10/29 06:09:17;;;;;;;;;12.50;11.00;;;;;;;;5091800;27;50072;-78
2021/10/29 06:11:42;;;;;;;;;15.00;11.25;;;;;;;;5073721;27;49875;-77
2021/10/29 06:14:08;;;;;;;;;10.50;9.25;;;;;;;;5092846;27;49639;-76
2021/10/29 06:16:33;;;;;;;;;10.75;10.50;;;;;;;;5092817;27;49849;-70
2021/10/29 06:18:58;;;;;;;;;13.00;10.50;;;;;;;;5091670;27;50186;-71
2021/10/29 06:21:34;;;;;;;;;9.00;9.00;;;;;;;;5092674;27;49785;-74
2021/10/29 06:24:03;;;;;;;;;9.50;9.50;;;;;;;;5091607;27;49845;-74
2021/10/29 06:26:38;;;;;;;;;10.75;9.00;;;;;;;;5089794;27;51782;-76
2021/10/29 06:29:04;;;;;;;;;9.75;9.75;;;;;;;;5090288;27;49854;-74
2021/10/29 06:31:29;;;;;;;;;13.25;11.00;;;;;;;;5080298;27;49720;-76
2021/10/29 06:33:55;;;;;;;;;11.00;10.00;;;;;;;;5089179;27;49860;-70
2021/10/29 06:36:20;;;;;;;;;12.00;11.00;;;;;;;;5091939;27;50747;-76
2021/10/29 06:38:48;;;;;;;;;8.75;8.75;;;;;;;;5092663;27;49641;-79
2021/10/29 06:41:14;;;;;;;;;12.75;11.50;;;;;;;;5074240;27;50052;-75
2021/10/29 06:43:48;;;;;;;;;14.75;9.75;;;;;;;;5074228;27;50230;-73
2021/10/29 06:46:39;;;;;;;;;12.00;11.25;;;;;;;;5092358;27;49743;-78
2021/10/29 06:49:17;;;;;;;;;13.00;12.00;;;;;;;;5091247;27;49582;-74
2021/10/29 07:00:02;;;;;;;;;9.75;8.00;;;;;;;;5091633;27;49730;-73
2021/10/29 07:40:52;;;;;;;;;10.00;10.00;;;;;;;;5090427;27;50195;-77
2021/10/29 07:46:14;;;;;;;;;10.00;9.50;;;;;;;;5067510;27;49931;-74
2021/10/29 07:48:40;;;;;;;;;10.00;9.00;;;;;;;;5092941;27;50075;-76
2021/10/29 07:51:05;;;;;;;;;8.50;8.50;;;;;;;;5092525;27;50072;-72
2021/10/29 07:53:31;;;;;;;;;7.25;6.25;;;;;;;;5089497;27;49754;-74
2021/10/29 07:55:59;;;;;;;;;6.00;6.00;;;;;;;;5090075;27;50007;-72
2021/10/29 07:58:25;;;;;;;;;10.00;7.50;;;;;;;;5090170;27;49819;-79
2021/10/29 08:00:56;;;;;;;;;5.50;5.50;;;;;;;;5089373;27;50247;-77
2021/10/29 08:03:21;;;;;;;;;6.25;6.25;;;;;;;;5078802;27;49888;-77
2021/10/29 08:05:46;;;;;;;;;10.25;7.00;;;;;;;;5073602;27;49906;-76
2021/10/29 08:08:19;;;;;;;;;9.00;9.00;;;;;;;;5086380;27;49845;-76
2021/10/29 08:10:45;;;;;;;;;6.00;5.25;;;;;;;;5087677;27;49806;-77
2021/10/29 08:13:11;;;;;;;;;8.00;6.50;;;;;;;;5087603;27;49772;-76
2021/10/29 08:15:37;;;;;;;;;6.75;6.00;;;;;;;;5087954;27;49801;-76
2021/10/29 08:18:06;;;;;;;;;8.75;6.75;;;;;;;;5071286;27;49949;-76
2021/10/29 08:20:31;;;;;;;;;6.25;6.00;;;;;;;;5070415;27;51183;-76
2021/10/29 08:22:57;;;;;;;;;9.50;9.50;;;;;;;;5091074;27;49611;-76
2021/10/29 08:25:22;;;;;;;;;6.75;6.50;;;;;;;;5089525;27;49687;-77
2021/10/29 08:27:47;;;;;;;;;5.50;5.50;;;;;;;;5099590;27;49710;-76
2021/10/29 08:30:12;;;;;;;;;7.50;5.00;;;;;;;;5078283;27;52480;-76
2021/10/29 08:32:38;;;;;;;;;6.00;6.00;;;;;;;;5069189;28;49648;-77
2021/10/29 08:35:04;;;;;;;;;8.25;7.00;;;;;;;;5068837;28;49745;-77
2021/10/29 08:37:31;;;;;;;;;8.75;7.00;;;;;;;;5070444;27;49761;-75
2021/10/29 08:39:56;;;;;;;;;3.00;3.00;;;;;;;;5070066;28;50433;-77
2021/10/29 08:42:22;;;;;;;;;8.50;7.00;;;;;;;;5075072;28;49767;-74
2021/10/29 08:44:47;;;;;;;;;8.25;8.25;;;;;;;;5077737;27;49772;-74
2021/10/29 08:47:14;;;;;;;;;9.75;6.00;;;;;;;;5085236;27;49604;-76
2021/10/29 08:49:39;;;;;;;;;5.25;5.25;;;;;;;;5109997;27;50466;-75
2021/10/29 08:52:05;;;;;;;;;5.00;5.00;;;;;;;;5111733;27;50061;-76
2021/10/29 08:54:30;;;;;;;;;3.50;3.50;;;;;;;;5113538;27;49862;-76
2021/10/29 08:56:56;;;;;;;;;5.25;4.00;;;;;;;;5113482;27;49686;-75
2021/10/29 08:59:32;;;;;;;;;7.75;6.75;;;;;;;;5112971;27;50637;-76
2021/10/29 09:32:01;;;;;;;;;5.00;5.00;;;;;;;;5095092;27;49655;-73
2021/10/29 09:34:26;;;;;;;;;5.25;5.25;;;;;;;;5092130;27;49828;-73
2021/10/29 09:36:52;;;;;;;;;4.00;4.00;;;;;;;;5093870;27;49615;-74
2021/10/29 09:39:22;;;;;;;;;8.25;6.00;;;;;;;;5097746;27;49962;-73
2021/10/29 09:41:59;;;;;;;;;5.25;5.25;;;;;;;;5093940;27;50604;-74
2021/10/29 09:44:24;;;;;;;;;4.00;4.00;;;;;;;;5102105;27;49836;-73
2021/10/29 09:46:58;;;;;;;;;4.00;4.00;;;;;;;;5109867;27;49900;-73
2021/10/29 09:49:38;;;;;;;;;7.50;6.00;;;;;;;;5106119;27;49788;-74
2021/10/29 09:57:27;;;;;;;;;7.00;7.00;;;;;;;;5081682;27;50185;-76
2021/10/29 09:59:53;;;;;;;;;8.25;6.00;;;;;;;;5086279;27;49730;-73
2021/10/29 10:02:19;;;;;;;;;5.50;5.50;;;;;;;;5085945;27;49761;-73
2021/10/29 10:04:45;;;;;;;;;4.25;4.25;;;;;;;;5083027;27;49289;-74
2021/10/29 10:07:10;;;;;;;;;6.00;4.50;;;;;;;;5078608;27;50080;-78
2021/10/29 10:09:36;;;;;;;;;5.00;5.00;;;;;;;;5078918;27;49661;-73
2021/10/29 10:12:01;;;;;;;;;6.75;5.00;;;;;;;;5081822;27;57079;-74
2021/10/29 10:14:27;;;;;;;;;7.25;6.00;;;;;;;;5089773;27;49329;-73
2021/10/29 10:16:52;;;;;;;;;6.75;6.75;;;;;;;;5088732;28;49452;-74
2021/10/29 10:19:17;;;;;;;;;5.25;5.25;;;;;;;;5091550;27;49616;-73
2021/10/29 10:21:44;;;;;;;;;8.00;7.00;;;;;;;;5088754;27;51522;-77
2021/10/29 10:24:14;;;;;;;;;6.00;6.00;;;;;;;;5109768;27;49500;-77
2021/10/29 10:29:16;;;;;;;;;10.75;6.50;;;;;;;;5105239;27;49730;-80
2021/10/29 10:40:27;;;;;;;;;6.75;5.75;;;;;;;;5099655;27;49735;-74
2021/10/29 10:45:51;;;;;;;;;5.50;5.25;;;;;;;;5091028;27;49909;-75
2021/10/29 10:48:46;;;;;;;;;8.25;8.25;;;;;;;;5094466;27;49768;-76
2021/10/29 10:51:42;;;;;;;;;8.75;6.50;;;;;;;;5090083;27;49767;-76
2021/10/29 10:54:31;;;;;;;;;8.25;8.00;;;;;;;;5092245;27;50424;-77
2021/10/29 11:10:33;;;;;;;;;8.00;8.00;;;;;;;;5090713;27;50168;-71
2021/10/29 11:13:02;;;;;;;;;7.50;7.50;;;;;;;;5091957;27;49908;-68
2021/10/29 11:15:27;;;;;;;;;14.00;12.00;;;;;;;;5101850;27;49792;-69
2021/10/29 11:17:57;;;;;;;;;6.00;6.00;;;;;;;;5102987;27;49498;-69
2021/10/29 11:20:47;;;;;;;;;9.00;7.75;;;;;;;;5084522;27;49861;-70
2021/10/29 11:23:22;;;;;;;;;9.75;8.75;;;;;;;;5091118;27;49787;-69
2021/10/29 11:25:47;;;;;;;;;9.25;7.50;;;;;;;;5090226;27;50690;-71
2021/10/29 11:28:13;;;;;;;;;9.50;8.00;;;;;;;;5097902;27;49912;-64
2021/10/29 11:30:41;;;;;;;;;9.00;9.00;;;;;;;;5090357;27;50069;-71
2021/10/29 11:33:09;;;;;;;;;9.50;8.75;;;;;;;;5089315;27;50272;-70
2021/10/29 11:35:35;;;;;;;;;7.75;6.75;;;;;;;;5085707;27;51301;-70
2021/10/29 11:38:00;;;;;;;;;9.50;8.75;;;;;;;;5110711;27;49853;-69
2021/10/29 11:40:26;;;;;;;;;7.00;6.00;;;;;;;;5113512;27;50074;-71
2021/10/29 11:42:52;;;;;;;;;8.00;5.75;;;;;;;;5119291;27;49789;-71
2021/10/29 11:45:27;;;;;;;;;9.25;8.50;;;;;;;;5114767;27;50876;-71
2021/10/29 11:47:57;;;;;;;;;16.25;10.75;;;;;;;;5086976;27;49922;-70
2021/10/29 11:50:23;;;;;;;;;10.75;9.50;;;;;;;;5092895;27;49968;-71
2021/10/29 11:52:48;;;;;;;;;7.50;7.25;;;;;;;;5089418;27;49801;-70
2021/10/29 12:08:40;;;;;;;;;6.00;6.00;;;;;;;;5090932;27;49813;-70
2021/10/29 12:11:07;;;;;;;;;8.00;8.00;;;;;;;;5091520;27;49688;-71
2021/10/29 12:13:36;;;;;;;;;7.75;7.75;;;;;;;;5093019;27;49690;-69
2021/10/29 12:16:01;;;;;;;;;10.00;10.00;;;;;;;;5090748;27;50968;-72
2021/10/29 12:18:36;;;;;;;;;10.50;8.25;;;;;;;;5096773;27;49590;-72
2021/10/29 12:21:01;;;;;;;;;8.25;6.50;;;;;;;;5091144;27;49778;-71
2021/10/29 12:23:28;;;;;;;;;7.00;7.00;;;;;;;;5091214;27;49688;-71
2021/10/29 12:25:59;;;;;;;;;8.00;8.00;;;;;;;;5089589;27;50682;-72
2021/10/29 12:28:39;;;;;;;;;7.00;7.00;;;;;;;;5090588;27;49628;-72
2021/10/29 12:31:35;;;;;;;;;8.50;7.25;;;;;;;;5089858;27;49886;-72
2021/10/29 12:34:30;;;;;;;;;7.00;6.00;;;;;;;;5087956;27;49944;-72
2021/10/29 12:59:14;;;;;;;;;9.00;7.00;;;;;;;;5090201;27;49757;-74
2021/10/29 13:01:49;;;;;;;;;6.25;6.25;;;;;;;;5089242;27;49864;-72
2021/10/29 13:04:19;;;;;;;;;7.00;7.00;;;;;;;;5090711;27;49915;-73
2021/10/29 13:06:46;;;;;;;;;8.75;8.75;;;;;;;;5090189;27;49775;-72
2021/10/29 13:09:15;;;;;;;;;5.50;5.50;;;;;;;;5090569;27;49873;-73
2021/10/29 13:11:44;;;;;;;;;6.00;6.00;;;;;;;;5088942;27;49839;-74
2021/10/29 13:14:12;;;;;;;;;7.75;7.75;;;;;;;;5090208;27;49706;-72
2021/10/29 13:16:37;;;;;;;;;10.00;10.00;;;;;;;;5090454;27;49725;-73
2021/10/29 13:19:14;;;;;;;;;8.25;8.25;;;;;;;;5090112;27;49992;-73
2021/10/29 13:27:54;;;;;;;;;8.00;8.00;;;;;;;;5090008;27;49607;-72
2021/10/29 13:36:05;;;;;;;;;6.75;6.75;;;;;;;;5085594;27;49940;-70
2021/10/29 13:57:20;;;;;;;;;6.00;6.00;;;;;;;;5090903;27;49923;-72
2021/10/29 14:00:03;;;;;;;;;7.50;7.50;;;;;;;;5096041;27;49923;-70
2021/10/29 14:24:34;;;;;;;;;9.50;9.50;;;;;;;;5089886;27;50048;-76
2021/10/29 14:32:36;;;;;;;;;6.75;6.75;;;;;;;;5085959;27;49840;-76
2021/10/29 14:35:02;;;;;;;;;9.25;8.00;;;;;;;;5089642;27;50547;-73
2021/10/29 14:37:38;;;;;;;;;7.00;7.00;;;;;;;;5093073;27;49913;-73
2021/10/29 14:45:18;;;;;;;;;6.50;6.50;;;;;;;;5093666;27;50339;-74
2021/10/29 15:04:01;;;;;;;;;10.00;9.25;;;;;;;;5094882;27;50035;-76
2021/10/29 15:15:34;;;;;;;;;5.00;4.25;;;;;;;;5092159;27;49798;-75
2021/10/29 15:25:31;;;;;;;;;6.00;6.00;;;;;;;;5093152;27;49750;-75
2021/10/29 15:28:11;;;;;;;;;7.00;6.25;;;;;;;;5088396;27;50793;-75
2021/10/29 15:46:24;;;;;;;;;6.00;6.00;;;;;;;;5091243;27;50306;-67
2021/10/29 15:48:54;;;;;;;;;7.25;7.25;;;;;;;;5089554;27;50682;-66
2021/10/29 15:51:19;;;;;;;;;7.50;7.50;;;;;;;;5090816;27;49739;-67
2021/10/29 15:53:45;;;;;;;;;6.00;6.00;;;;;;;;5090263;27;49962;-68
2021/10/29 15:56:36;;;;;;;;;6.00;6.00;;;;;;;;5088527;27;49847;-68
2021/10/29 15:59:49;;;;;;;;;6.50;6.50;;;;;;;;5090854;27;50697;-68
2021/10/29 16:01:53;;;;;;;;;6.00;6.00;;;;;;;;5089247;27;50034;-65
2021/10/29 16:17:58;;;;;;;;;5.75;4.75;;;;;;;;5079601;28;49899;-68
2021/10/29 16:20:23;;;;;;;;;7.75;7.75;;;;;;;;5086574;28;49874;-69
2021/10/29 16:22:49;;;;;;;;;7.75;7.00;;;;;;;;5072487;28;49568;-67
2021/10/29 16:25:18;;;;;;;;;8.25;7.00;;;;;;;;5069926;27;49977;-68
2021/10/29 16:30:28;;;;;;;;;11.50;8.25;;;;;;;;5071677;27;49848;-67
2021/10/29 16:35:38;;;;;;;;;9.25;9.25;;;;;;;;5071377;27;49765;-70
2021/10/29 16:38:07;;;;;;;;;8.00;8.00;;;;;;;;5073634;28;49956;-70
2021/10/29 16:40:33;;;;;;;;;11.75;10.00;;;;;;;;5072141;28;49942;-68
2021/10/29 16:42:58;;;;;;;;;9.00;9.00;;;;;;;;5070098;27;49561;-69
2021/10/29 16:45:23;;;;;;;;;10.00;10.00;;;;;;;;5068778;28;49645;-72
2021/10/29 16:47:48;;;;;;;;;10.00;8.00;;;;;;;;5070587;27;49716;-73
2021/10/29 16:50:14;;;;;;;;;7.50;7.50;;;;;;;;5067650;28;56705;-73
2021/10/29 16:52:39;;;;;;;;;8.75;8.75;;;;;;;;5068865;28;49888;-75
2021/10/29 16:55:05;;;;;;;;;7.75;6.25;;;;;;;;5070446;28;49997;-76
2021/10/29 16:57:30;;;;;;;;;9.50;9.25;;;;;;;;5070212;27;49701;-80
2021/10/29 16:59:55;;;;;;;;;12.50;9.25;;;;;;;;5099641;27;49942;-70
2021/10/29 17:02:21;;;;;;;;;11.75;11.00;;;;;;;;5102378;27;50429;-71
2021/10/29 17:04:47;;;;;;;;;11.00;11.00;;;;;;;;5101986;27;60463;-71
2021/10/29 17:07:12;;;;;;;;;9.75;9.00;;;;;;;;5091899;27;49934;-71
2021/10/29 17:09:37;;;;;;;;;10.50;9.00;;;;;;;;5093521;27;54518;-72
2021/10/29 17:12:03;;;;;;;;;12.00;11.00;;;;;;;;5083340;27;49889;-76
2021/10/29 17:14:30;;;;;;;;;11.75;10.50;;;;;;;;5079033;27;49738;-73
2021/10/29 17:16:56;;;;;;;;;9.00;9.00;;;;;;;;5074150;27;49724;-75
2021/10/29 17:19:21;;;;;;;;;10.25;10.25;;;;;;;;5069853;27;51639;-73
2021/10/29 17:21:47;;;;;;;;;13.50;11.25;;;;;;;;5071686;27;49851;-74
2021/10/29 17:24:12;;;;;;;;;8.00;8.00;;;;;;;;5055610;27;49790;-76
2021/10/29 17:26:38;;;;;;;;;9.75;9.25;;;;;;;;5080348;27;50497;-73
2021/10/29 17:29:03;;;;;;;;;9.00;8.75;;;;;;;;5074590;27;49960;-73
2021/10/29 17:31:28;;;;;;;;;11.50;10.50;;;;;;;;5091741;27;55640;-74
2021/10/29 17:33:53;;;;;;;;;14.75;13.75;;;;;;;;5084692;27;49993;-74
2021/10/29 17:36:19;;;;;;;;;15.50;14.00;;;;;;;;5071177;27;49994;-79
2021/10/29 17:38:44;;;;;;;;;14.00;13.75;;;;;;;;5072524;27;56449;-78
2021/10/29 17:41:10;;;;;;;;;13.00;10.25;;;;;;;;5053475;28;49855;-67
2021/10/29 17:43:35;;;;;;;;;12.50;12.00;;;;;;;;5072603;27;49620;-72
2021/10/29 17:46:00;;;;;;;;;13.50;11.50;;;;;;;;5054770;28;49950;-68
2021/10/29 17:48:26;;;;;;;;;12.75;9.25;;;;;;;;5076612;27;50173;-68
2021/10/29 17:50:52;;;;;;;;;12.00;12.00;;;;;;;;5073793;28;49693;-68
2021/10/29 17:53:17;;;;;;;;;9.50;9.50;;;;;;;;5075627;27;49686;-68
2021/10/29 17:55:43;;;;;;;;;13.75;12.75;;;;;;;;5073035;28;49946;-68
2021/10/29 17:58:08;;;;;;;;;11.50;10.75;;;;;;;;5072822;27;54577;-67
2021/10/29 18:00:33;;;;;;;;;13.50;13.50;;;;;;;;5072579;27;49778;-69
2021/10/29 18:02:58;;;;;;;;;13.50;12.50;;;;;;;;5072606;27;49867;-67
2021/10/29 18:05:26;;;;;;;;;12.50;11.00;;;;;;;;5071049;28;49910;-69
2021/10/29 18:07:57;;;;;;;;;13.00;11.75;;;;;;;;5071048;28;50474;-68
2021/10/29 18:10:22;;;;;;;;;14.25;13.00;;;;;;;;5071090;27;49855;-69
2021/10/29 18:12:47;;;;;;;;;15.00;14.25;;;;;;;;5077882;27;49696;-70
2021/10/29 18:15:13;;;;;;;;;11.75;10.25;;;;;;;;5072273;27;49586;-70
2021/10/29 18:17:39;;;;;;;;;12.75;11.75;;;;;;;;5074715;28;50532;-70
2021/10/29 18:20:04;;;;;;;;;19.00;15.75;;;;;;;;5074884;27;49763;-71
2021/10/29 18:22:29;;;;;;;;;6.25;6.00;;;;;;;;5071077;28;49672;-72
2021/10/29 18:24:54;;;;;;;;;7.50;5.50;;;;;;;;5070724;27;50007;-72
2021/10/29 18:27:23;;;;;;;;;13.00;12.00;;;;;;;;5053778;27;51385;-70
2021/10/29 18:29:52;;;;;;;;;12.75;11.25;;;;;;;;5075162;27;49692;-78
2021/10/29 18:32:18;;;;;;;;;13.00;11.50;;;;;;;;5073616;27;49839;-83
2021/10/29 18:34:47;;;;;;;;;14.25;12.25;;;;;;;;5073067;27;49549;-79
2021/10/29 18:37:13;;;;;;;;;12.25;11.75;;;;;;;;5073493;27;50941;-87
2021/10/29 18:39:38;;;;;;;;;13.50;12.50;;;;;;;;5075829;27;49598;-72
2021/10/29 18:42:04;;;;;;;;;12.75;11.75;;;;;;;;5072437;27;49916;-78
2021/10/29 18:44:29;;;;;;;;;15.25;13.00;;;;;;;;5078166;27;49895;-80
2021/10/29 18:46:54;;;;;;;;;11.00;10.25;;;;;;;;5073268;27;50319;-69
2021/10/29 18:49:21;;;;;;;;;14.50;13.25;;;;;;;;5091187;27;61878;-77
2021/10/29 18:51:47;;;;;;;;;16.50;13.00;;;;;;;;5090607;27;49822;-71
2021/10/29 18:54:12;;;;;;;;;21.00;17.50;;;;;;;;5091488;27;49692;-75
2021/10/29 18:56:37;;;;;;;;;15.00;15.00;;;;;;;;5095203;27;59154;-76
2021/10/29 18:59:06;;;;;;;;;14.75;13.00;;;;;;;;5073626;27;49777;-78
2021/10/29 19:01:31;;;;;;;;;16.75;14.50;;;;;;;;5073815;27;49764;-77
2021/10/29 19:03:56;;;;;;;;;19.25;13.00;;;;;;;;5091942;27;50044;-77
2021/10/29 19:06:22;;;;;;;;;14.75;14.75;;;;;;;;5073175;27;51240;-77
2021/10/29 19:08:47;;;;;;;;;17.25;17.25;;;;;;;;5072905;27;49593;-77
2021/10/29 19:11:13;;;;;;;;;16.25;13.00;;;;;;;;5073393;27;49712;-77
2021/10/29 19:13:38;;;;;;;;;14.50;14.50;;;;;;;;5092146;27;49811;-73